createdAt,value
2019-01-13T00:04:39.209Z,6.80
2019-01-13T00:07:26.732Z,6.60
2019-01-13T00:09:55.920Z,7.53
2019-01-13T00:12:24.206Z,7.35
2019-01-13T00:23:01.550Z,7.37
2019-01-13T00:25:47.417Z,6.87
2019-01-13T00:33:31.824Z,7.70
2019-01-13T00:47:43.796Z,6.60
2019-01-13T00:50:31.410Z,7.35
2019-01-13T00:53:18.485Z,6.10
2019-01-13T00:55:46.789Z,6.85
2019-01-13T00:58:14.710Z,6.80
2019-01-13T01:03:41.524Z,6.35
2019-01-13T01:06:09.683Z,5.90
2019-01-13T01:08:37.525Z,6.25
2019-01-13T01:11:08.666Z,6.08
2019-01-13T01:16:30.048Z,6.72
2019-01-13T01:19:18.612Z,7.12
2019-01-13T01:22:06.991Z,7.10
2019-01-13T01:24:35.015Z,6.35
2019-01-13T01:27:11.146Z,6.80
2019-01-13T01:35:02.942Z,6.87
2019-01-13T01:37:31.525Z,7.92
2019-01-13T01:43:07.302Z,7.10
2019-01-13T01:48:41.379Z,8.33
2019-01-13T01:51:09.323Z,7.95
2019-01-13T01:53:56.562Z,8.58
2019-01-13T01:59:29.005Z,8.78
2019-01-13T02:01:56.991Z,8.80
2019-01-13T02:07:12.609Z,10.65
2019-01-13T02:09:40.546Z,9.90
2019-01-13T02:12:11.280Z,9.55
2019-01-13T02:14:58.292Z,10.40
2019-01-13T02:23:30.239Z,9.60
2019-01-13T02:26:29.166Z,10.30
2019-01-13T02:28:42.117Z,9.53
2019-01-13T02:31:20.139Z,8.00
2019-01-13T02:34:09.411Z,9.35
2019-01-13T02:36:38.238Z,9.20
2019-01-13T02:47:39.342Z,9.45
2019-01-13T02:50:26.365Z,9.68
2019-01-13T02:52:56.871Z,9.78
2019-01-13T02:55:43.785Z,9.05
2019-01-13T02:58:15.636Z,9.30
2019-01-13T03:00:44.613Z,9.10
2019-01-13T03:05:59.715Z,9.63
2019-01-13T03:08:27.737Z,9.85
2019-01-13T03:14:10.367Z,9.63
2019-01-13T03:22:40.598Z,10.70
2019-01-13T03:24:58.417Z,9.88
2019-01-13T03:27:28.846Z,9.33
2019-01-13T03:29:57.342Z,10.50
2019-01-13T03:32:46.259Z,10.20
2019-01-13T03:35:15.274Z,9.28
2019-01-13T03:37:45.215Z,11.12
2019-01-13T03:40:32.897Z,10.00
2019-01-13T03:43:21.494Z,9.88
2019-01-13T03:45:53.694Z,11.10
2019-01-13T03:53:30.552Z,11.88
2019-01-13T03:58:47.297Z,13.28
2019-01-13T04:01:18.658Z,10.82
2019-01-13T04:03:44.796Z,11.70
2019-01-13T04:06:12.744Z,12.07
2019-01-13T04:08:41.755Z,11.33
2019-01-13T04:11:09.817Z,12.23
2019-01-13T04:13:58.322Z,10.43
2019-01-13T04:24:27.994Z,10.93
2019-01-13T04:32:53.064Z,12.65
2019-01-13T04:35:21.527Z,13.50
2019-01-13T04:37:50.309Z,13.18
2019-01-13T04:42:55.719Z,12.65
2019-01-13T04:48:17.940Z,13.68
2019-01-13T04:53:21.801Z,11.43
2019-01-13T04:55:51.873Z,11.70
2019-01-13T04:58:38.759Z,11.03
2019-01-13T05:01:11.295Z,10.03
2019-01-13T05:03:39.870Z,10.08
2019-01-13T05:06:09.603Z,10.15
2019-01-13T05:08:42.535Z,10.65
2019-01-13T05:11:12.734Z,10.25
2019-01-13T05:13:40.940Z,11.63
2019-01-13T05:16:08.939Z,11.00
2019-01-13T05:18:39.055Z,11.25
2019-01-13T05:21:08.092Z,9.90
2019-01-13T05:26:27.143Z,10.80
2019-01-13T05:28:55.057Z,11.15
2019-01-13T05:31:44.179Z,10.25
2019-01-13T05:40:21.247Z,10.85
2019-01-13T05:45:58.733Z,12.25
2019-01-13T05:48:26.710Z,11.90
2019-01-13T05:50:54.578Z,10.78
2019-01-13T05:56:02.605Z,12.60
2019-01-13T06:04:19.178Z,11.38
2019-01-13T06:06:48.951Z,14.00
2019-01-13T06:09:18.630Z,13.38
2019-01-13T06:11:47.835Z,15.32
2019-01-13T06:17:17.403Z,14.43
2019-01-13T06:19:35.131Z,14.45
2019-01-13T06:22:03.079Z,15.30
2019-01-13T06:24:32.038Z,13.68
2019-01-13T06:27:20.724Z,16.25
2019-01-13T06:29:50.342Z,15.38
2019-01-13T06:32:18.536Z,13.65
2019-01-13T06:34:50.454Z,11.78
2019-01-13T06:37:18.664Z,12.47
2019-01-13T06:39:46.857Z,11.90
2019-01-13T06:45:07.186Z,12.98
2019-01-13T06:47:35.152Z,12.25
2019-01-13T06:50:03.078Z,11.90
2019-01-13T06:52:30.890Z,11.63
2019-01-13T06:54:58.742Z,11.43
2019-01-13T06:57:26.551Z,11.28
2019-01-13T06:59:54.542Z,13.65
2019-01-13T07:02:22.382Z,15.63
2019-01-13T07:04:50.191Z,14.75
2019-01-13T07:07:18.034Z,14.78
2019-01-13T07:09:45.879Z,14.73
2019-01-13T07:12:13.689Z,15.78
2019-01-13T07:14:41.537Z,15.78
2019-01-13T07:17:17.222Z,15.90
2019-01-13T07:19:45.089Z,16.12
2019-01-13T07:22:12.906Z,14.60
2019-01-13T07:24:40.710Z,16.17
2019-01-13T07:27:08.542Z,15.20
2019-01-13T07:29:36.396Z,15.10
2019-01-13T07:32:10.592Z,15.18
2019-01-13T07:34:33.874Z,14.50
2019-01-13T07:37:01.753Z,15.45
2019-01-13T07:39:29.666Z,15.05
2019-01-13T07:41:57.532Z,16.32
2019-01-13T07:44:25.346Z,15.75
2019-01-13T07:46:53.406Z,15.13
2019-01-13T07:49:21.241Z,14.43
2019-01-13T07:51:49.112Z,13.60
2019-01-13T07:54:16.919Z,13.50
2019-01-13T07:56:44.788Z,12.25
2019-01-13T07:59:12.593Z,11.50
2019-01-13T08:01:40.466Z,11.65
2019-01-13T08:04:08.328Z,10.40
2019-01-13T08:06:36.191Z,11.88
2019-01-13T08:12:13.254Z,10.32
2019-01-13T08:14:41.114Z,10.70
2019-01-13T08:17:08.970Z,11.25
2019-01-13T08:19:36.805Z,10.68
2019-01-13T08:22:04.704Z,10.63
2019-01-13T08:24:32.610Z,10.68
2019-01-13T08:27:19.450Z,11.70
2019-01-13T08:29:47.310Z,11.30
2019-01-13T08:32:15.186Z,10.88
2019-01-13T08:34:43.082Z,10.88
2019-01-13T08:37:10.939Z,10.28
2019-01-13T08:39:38.805Z,12.15
2019-01-13T08:42:06.633Z,9.68
2019-01-13T08:44:34.512Z,10.20
2019-01-13T08:47:02.338Z,9.35
2019-01-13T08:49:31.639Z,10.63
2019-01-13T08:51:59.737Z,9.68
2019-01-13T08:54:27.594Z,8.85
2019-01-13T08:56:55.419Z,9.33
2019-01-13T08:59:23.272Z,8.65
2019-01-13T09:01:51.120Z,10.00
2019-01-13T09:04:19.058Z,9.40
2019-01-13T09:06:46.884Z,9.65
2019-01-13T09:09:14.723Z,8.03
2019-01-13T09:11:42.537Z,8.00
2019-01-13T09:14:10.391Z,8.03
2019-01-13T09:16:38.241Z,7.78
2019-01-13T09:19:06.149Z,8.35
2019-01-13T09:21:34.006Z,6.87
2019-01-13T09:24:01.824Z,6.15
2019-01-13T09:26:29.689Z,6.47
2019-01-13T09:28:57.533Z,5.40
2019-01-13T09:31:25.395Z,5.72
2019-01-13T09:33:53.299Z,5.08
2019-01-13T09:36:21.166Z,5.00
2019-01-13T09:38:48.979Z,4.92
2019-01-13T09:41:16.865Z,4.90
2019-01-13T09:43:44.695Z,5.20
2019-01-13T09:46:12.551Z,4.83
2019-01-13T09:48:40.354Z,4.33
2019-01-13T09:51:08.218Z,5.03
2019-01-13T09:53:36.119Z,4.15
2019-01-13T09:56:04.278Z,5.10
2019-01-13T09:58:32.162Z,4.37
2019-01-13T10:01:00.001Z,5.00
2019-01-13T10:03:27.893Z,4.28
2019-01-13T10:05:55.710Z,5.03
2019-01-13T10:08:23.569Z,4.90
2019-01-13T10:10:51.431Z,4.60
2019-01-13T10:13:19.287Z,4.20
2019-01-13T10:15:47.139Z,4.58
2019-01-13T10:18:14.990Z,4.35
2019-01-13T10:20:42.831Z,3.70
2019-01-13T10:23:10.698Z,4.40
2019-01-13T10:25:38.542Z,3.95
2019-01-13T10:28:06.469Z,3.70
2019-01-13T10:30:34.395Z,3.15
2019-01-13T10:33:02.232Z,3.10
2019-01-13T10:35:30.094Z,3.33
2019-01-13T10:37:57.970Z,3.90
2019-01-13T10:40:26.939Z,3.15
2019-01-13T10:42:54.870Z,3.62
2019-01-13T10:45:22.769Z,4.28
2019-01-13T10:47:50.637Z,4.20
2019-01-13T10:53:13.726Z,2.95
2019-01-13T10:55:41.620Z,3.72
2019-01-13T10:58:09.486Z,3.65
2019-01-13T11:00:37.435Z,3.62
2019-01-13T11:06:10.079Z,3.25
2019-01-13T11:08:29.825Z,3.45
2019-01-13T11:10:57.806Z,2.92
2019-01-13T11:13:25.721Z,3.40
2019-01-13T11:21:23.172Z,2.80
2019-01-13T11:24:13.233Z,3.15
2019-01-13T11:26:41.209Z,3.27
2019-01-13T11:31:59.935Z,3.05
2019-01-13T11:34:27.906Z,3.85
2019-01-13T11:39:32.823Z,3.27
2019-01-13T11:42:00.791Z,4.17
2019-01-13T11:44:49.515Z,4.25
2019-01-13T11:50:13.221Z,3.17
2019-01-13T11:52:41.228Z,2.70
2019-01-13T11:55:14.294Z,3.90
2019-01-13T11:57:43.167Z,2.50
2019-01-13T12:03:08.223Z,2.42
2019-01-13T12:05:38.167Z,2.92
2019-01-13T12:16:30.262Z,2.65
2019-01-13T12:18:58.273Z,2.60
2019-01-13T12:21:28.230Z,2.35
2019-01-13T12:23:57.107Z,2.60
2019-01-13T12:26:39.143Z,2.65
2019-01-13T12:28:54.706Z,2.20
2019-01-13T12:31:22.974Z,2.30
2019-01-13T12:33:53.277Z,2.30
2019-01-13T12:36:21.288Z,2.12
2019-01-13T12:47:36.158Z,2.45
2019-01-13T12:50:25.675Z,2.77
2019-01-13T12:53:14.327Z,2.65
2019-01-13T12:56:01.214Z,2.77
2019-01-13T12:58:29.027Z,1.77
2019-01-13T13:00:56.929Z,2.20
2019-01-13T13:03:31.397Z,2.08
2019-01-13T13:05:54.408Z,2.45
2019-01-13T13:08:22.255Z,2.10
2019-01-13T13:10:51.585Z,2.30
2019-01-13T13:13:19.792Z,2.20
2019-01-13T13:15:47.691Z,2.25
2019-01-13T13:18:15.510Z,2.30
2019-01-13T13:20:43.516Z,2.40
2019-01-13T13:23:11.480Z,2.10
2019-01-13T13:25:39.406Z,1.70
2019-01-13T13:28:07.398Z,2.00
2019-01-13T13:30:35.266Z,2.52
2019-01-13T13:33:03.127Z,1.92
2019-01-13T13:35:31.019Z,2.20
2019-01-13T13:37:58.874Z,1.87
2019-01-13T13:40:26.758Z,2.37
2019-01-13T13:42:54.687Z,2.50
2019-01-13T13:45:22.832Z,2.60
2019-01-13T13:47:50.910Z,2.35
2019-01-13T13:50:19.932Z,3.20
2019-01-13T13:52:47.991Z,2.95
2019-01-13T13:55:15.824Z,3.02
2019-01-13T13:57:43.743Z,2.80
2019-01-13T14:00:13.614Z,2.65
2019-01-13T14:02:41.484Z,2.85
2019-01-13T14:05:09.639Z,2.87
2019-01-13T14:07:37.574Z,2.58
2019-01-13T14:10:06.590Z,3.08
2019-01-13T14:12:34.646Z,2.40
2019-01-13T14:15:02.519Z,2.25
2019-01-13T14:17:30.356Z,2.60
2019-01-13T14:19:58.228Z,2.90
2019-01-13T14:22:26.031Z,2.80
2019-01-13T14:24:53.897Z,2.70
2019-01-13T14:27:21.759Z,3.02
2019-01-13T14:29:49.620Z,3.15
2019-01-13T14:32:17.469Z,2.37
2019-01-13T14:34:45.335Z,2.60
2019-01-13T14:37:13.174Z,2.17
2019-01-13T14:39:41.122Z,2.30
2019-01-13T14:42:09.002Z,2.60
2019-01-13T14:44:36.843Z,2.37
2019-01-13T14:47:04.775Z,2.35
2019-01-13T14:49:32.636Z,2.35
2019-01-13T14:52:00.475Z,2.55
2019-01-13T14:54:28.676Z,2.40
2019-01-13T14:56:56.515Z,2.65
2019-01-13T14:59:24.385Z,2.65
2019-01-13T15:01:52.248Z,2.22
2019-01-13T15:04:20.097Z,2.45
2019-01-13T15:06:47.975Z,2.10
2019-01-13T15:09:15.890Z,2.42
2019-01-13T15:11:43.742Z,2.50
2019-01-13T15:14:11.598Z,2.55
2019-01-13T15:16:39.562Z,3.05
2019-01-13T15:19:07.415Z,3.00
2019-01-13T15:21:35.318Z,2.40
2019-01-13T15:24:03.204Z,2.85
2019-01-13T15:26:31.246Z,2.52
2019-01-13T15:28:59.122Z,2.75
2019-01-13T15:31:27.044Z,2.90
2019-01-13T15:33:54.899Z,2.70
2019-01-13T15:36:22.763Z,3.00
2019-01-13T15:38:50.609Z,2.83
2019-01-13T15:41:18.511Z,2.70
2019-01-13T15:43:46.386Z,5.60
2019-01-13T15:46:14.266Z,2.47
2019-01-13T15:48:42.173Z,2.70
2019-01-13T15:51:10.009Z,3.27
2019-01-13T15:53:37.877Z,2.75
2019-01-13T15:56:05.743Z,3.20
2019-01-13T15:58:34.043Z,4.53
2019-01-13T16:01:01.874Z,3.80
2019-01-13T16:03:29.771Z,4.42
2019-01-13T16:05:57.602Z,4.50
2019-01-13T16:08:25.461Z,4.17
2019-01-13T16:10:53.324Z,3.83
2019-01-13T16:13:21.235Z,5.00
2019-01-13T16:15:49.079Z,4.30
2019-01-13T16:18:16.969Z,5.00
2019-01-13T16:20:44.810Z,5.62
2019-01-13T16:23:12.657Z,5.17
2019-01-13T16:25:40.538Z,5.83
2019-01-13T16:28:08.410Z,5.87
2019-01-13T16:30:36.470Z,5.72
2019-01-13T16:33:04.661Z,5.28
2019-01-13T16:35:32.598Z,6.22
2019-01-13T16:38:00.511Z,5.22
2019-01-13T16:40:28.378Z,4.87
2019-01-13T16:42:56.245Z,5.70
2019-01-13T16:45:24.123Z,5.78
2019-01-13T16:47:51.977Z,5.08
2019-01-13T16:50:21.007Z,5.65
2019-01-13T16:53:07.923Z,4.62
2019-01-13T16:55:36.131Z,4.42
2019-01-13T16:58:05.542Z,4.90
2019-01-13T17:00:33.498Z,3.92
2019-01-13T17:03:01.382Z,3.15
2019-01-13T17:05:30.141Z,3.10
2019-01-13T17:07:58.043Z,3.10
2019-01-13T17:10:26.182Z,3.10
2019-01-13T17:13:13.093Z,3.45
2019-01-13T17:15:41.109Z,3.05
2019-01-13T17:18:09.148Z,3.05
2019-01-13T17:20:37.054Z,3.67
2019-01-13T17:23:05.510Z,4.15
2019-01-13T17:25:34.493Z,3.70
2019-01-13T17:28:02.413Z,3.20
2019-01-13T17:30:31.342Z,4.42
2019-01-13T17:35:34.446Z,3.70
2019-01-13T17:38:02.541Z,3.17
2019-01-13T17:40:30.430Z,3.58
2019-01-13T17:45:45.464Z,3.15
2019-01-13T17:51:29.922Z,2.98
2019-01-13T17:54:12.000Z,3.47
2019-01-13T17:59:58.810Z,2.92
2019-01-13T18:08:00.651Z,4.33
2019-01-13T18:10:28.677Z,2.62
2019-01-13T18:13:04.126Z,2.75
2019-01-13T18:15:31.776Z,2.00
2019-01-13T18:18:21.566Z,2.83
2019-01-13T18:26:33.176Z,2.55
2019-01-13T18:29:08.139Z,4.92
2019-01-13T18:31:38.760Z,2.95
2019-01-13T18:37:58.679Z,2.65
2019-01-13T18:43:03.206Z,2.90
2019-01-13T18:45:50.628Z,3.22
2019-01-13T18:48:27.856Z,3.40
2019-01-13T18:54:15.651Z,2.92
2019-01-13T19:03:08.104Z,5.65
2019-01-13T19:17:29.749Z,2.80
2019-01-13T19:20:08.298Z,2.70
2019-01-13T19:37:53.478Z,2.20
2019-01-13T19:52:03.556Z,2.80
2019-01-13T20:07:16.219Z,2.40
2019-01-13T20:10:07.542Z,2.50
2019-01-13T20:15:55.582Z,3.87
2019-01-13T20:21:50.871Z,2.22
2019-01-13T20:24:24.637Z,2.22
2019-01-13T20:27:12.166Z,2.35
2019-01-13T20:39:25.025Z,2.83
2019-01-13T20:42:34.655Z,2.15
2019-01-13T20:44:57.576Z,1.95
2019-01-13T20:47:38.835Z,1.87
2019-01-13T20:50:22.006Z,1.80
2019-01-13T20:53:07.353Z,2.10
2019-01-13T20:56:03.547Z,1.62
2019-01-13T20:58:26.103Z,2.67
2019-01-13T21:01:13.133Z,1.70
2019-01-13T21:04:07.820Z,1.70
2019-01-13T21:06:38.578Z,1.47
2019-01-13T21:09:26.000Z,1.90
2019-01-13T21:11:58.075Z,1.82
2019-01-13T21:14:33.895Z,1.95
2019-01-13T21:19:52.870Z,2.10
2019-01-13T21:25:18.263Z,2.08
2019-01-13T21:28:13.951Z,1.55
2019-01-13T21:30:43.080Z,1.75
2019-01-13T21:36:32.160Z,1.60
2019-01-13T21:51:11.873Z,1.60
2019-01-13T21:56:19.669Z,1.90
2019-01-13T21:59:07.556Z,1.75
2019-01-13T22:01:45.232Z,1.95
2019-01-13T22:04:34.547Z,2.02
2019-01-13T22:07:06.188Z,2.50
2019-01-13T22:12:32.552Z,2.22
2019-01-13T22:15:23.458Z,2.25
2019-01-13T22:18:03.597Z,2.30
2019-01-13T22:20:24.645Z,2.65
2019-01-13T22:22:54.189Z,1.70
2019-01-13T22:28:11.143Z,2.40
2019-01-13T22:39:08.292Z,2.67
2019-01-13T22:41:36.300Z,3.33
2019-01-13T22:44:04.704Z,2.92
2019-01-13T22:46:32.566Z,2.35
2019-01-13T22:52:08.301Z,2.83
2019-01-13T22:54:38.754Z,2.77
2019-01-13T22:57:19.624Z,2.75
2019-01-13T22:59:36.891Z,1.85
2019-01-13T23:02:43.850Z,2.20
2019-01-13T23:05:15.360Z,2.00
2019-01-13T23:16:10.578Z,3.02
2019-01-13T23:30:10.148Z,2.00
2019-01-13T23:35:40.361Z,2.42
2019-01-13T23:43:10.710Z,3.40
2019-01-13T23:45:39.099Z,2.75
2019-01-13T23:48:11.917Z,2.85
2019-01-13T23:53:48.570Z,3.17
2019-01-13T23:56:16.500Z,2.60
2019-01-13T23:59:03.475Z,3.27
